METAR Data
IDs: Format: Raw Decoded Include TAF

Data at: 2300 UTC 30 Jun 2022

METAR for:KCEU (Clemson/Oconee Cnty, SC, US)
Text:KCEU 302254Z AUTO 12003KT 10SM FEW048 29/19 A3014 RMK AO2 SLP196 T02940194
Temperature: 29.4°C ( 85°F)
Dewpoint: 19.4°C ( 67°F) [RH = 55%]
Pressure (altimeter):30.14 inches Hg (1020.7 mb) [Sea level pressure: 1019.6 mb]
Winds:from the ESE (120 degrees) at 3 MPH (3 knots; 1.5 m/s)
Visibility:10 or more sm (16+ km)
Ceiling:at least 12,000 feet AGL
Clouds: few clouds at 4800 feet AGL
QC Flag:automated observation with no human augmentation

TAF for:KCEU (Clemson/Oconee Cnty, SC, US)
Text:No data found